createdAt,value
2019-05-13T00:02:08.482Z,1.40
2019-05-13T00:04:38.363Z,1.57
2019-05-13T00:07:08.492Z,1.40
2019-05-13T00:09:38.365Z,1.40
2019-05-13T00:12:08.301Z,1.33
2019-05-13T00:14:38.430Z,1.43
2019-05-13T00:17:08.682Z,1.50
2019-05-13T00:19:38.616Z,1.33
2019-05-13T00:22:08.558Z,1.40
2019-05-13T00:24:38.421Z,1.70
2019-05-13T00:27:08.209Z,2.07
2019-05-13T00:29:38.165Z,1.50
2019-05-13T00:32:08.015Z,1.73
2019-05-13T00:34:37.808Z,1.60
2019-05-13T00:37:11.399Z,1.50
2019-05-13T00:39:39.184Z,1.40
2019-05-13T00:42:10.300Z,1.33
2019-05-13T00:44:40.478Z,1.37
2019-05-13T00:47:10.417Z,1.70
2019-05-13T00:49:40.663Z,1.23
2019-05-13T00:52:10.606Z,1.23
2019-05-13T00:54:40.553Z,1.50
2019-05-13T00:57:13.228Z,1.20
2019-05-13T00:59:44.320Z,1.40
2019-05-13T01:02:14.644Z,1.50
2019-05-13T01:04:44.847Z,1.30
2019-05-13T01:07:24.829Z,1.50
2019-05-13T01:09:46.908Z,1.60
2019-05-13T01:12:16.750Z,1.70
2019-05-13T01:14:46.599Z,1.37
2019-05-13T01:17:16.384Z,2.07
2019-05-13T01:19:46.312Z,1.33
2019-05-13T01:22:16.181Z,2.00
2019-05-13T01:24:45.964Z,1.70
2019-05-13T01:27:15.912Z,1.70
2019-05-13T01:29:46.157Z,1.40
2019-05-13T01:32:16.015Z,1.40
2019-05-13T01:34:46.225Z,1.97
2019-05-13T01:37:16.169Z,1.60
2019-05-13T01:39:46.019Z,1.50
2019-05-13T01:42:15.891Z,1.47
2019-05-13T01:44:45.822Z,1.87
2019-05-13T01:47:15.777Z,1.63
2019-05-13T01:49:45.699Z,1.80
2019-05-13T01:52:15.641Z,1.63
2019-05-13T01:54:45.910Z,1.77
2019-05-13T01:57:15.761Z,1.57
2019-05-13T01:59:45.632Z,1.70
2019-05-13T02:02:15.868Z,1.97
2019-05-13T02:04:45.801Z,1.83
2019-05-13T02:07:16.076Z,1.70
2019-05-13T02:09:46.281Z,1.70
2019-05-13T02:12:16.139Z,1.70
2019-05-13T02:14:46.016Z,2.13
2019-05-13T02:17:15.935Z,2.07
2019-05-13T02:19:46.255Z,1.70
2019-05-13T02:22:16.116Z,1.90
2019-05-13T02:24:45.998Z,1.70
2019-05-13T02:27:15.923Z,1.80
2019-05-13T02:29:45.697Z,1.83
2019-05-13T02:32:15.963Z,1.80
2019-05-13T02:34:45.903Z,1.70
2019-05-13T02:37:15.759Z,1.77
2019-05-13T02:39:45.704Z,1.83
2019-05-13T02:42:16.717Z,1.97
2019-05-13T02:44:46.685Z,1.70
2019-05-13T02:47:16.550Z,1.97
2019-05-13T02:49:46.575Z,1.60
2019-05-13T02:52:16.451Z,1.70
2019-05-13T02:54:46.424Z,1.80
2019-05-13T02:57:16.717Z,1.90
2019-05-13T02:59:46.576Z,2.00
2019-05-13T03:02:16.691Z,1.63
2019-05-13T03:04:47.606Z,2.17
2019-05-13T03:07:17.526Z,1.77
2019-05-13T03:09:48.439Z,2.00
2019-05-13T03:12:18.299Z,1.90
2019-05-13T03:14:49.085Z,1.90
2019-05-13T03:17:24.826Z,1.67
2019-05-13T03:19:54.939Z,2.10
2019-05-13T03:22:26.024Z,1.57
2019-05-13T03:24:55.959Z,1.87
2019-05-13T03:27:26.251Z,2.10
2019-05-13T03:29:56.198Z,2.20
2019-05-13T03:32:35.170Z,1.93
2019-05-13T03:34:57.925Z,2.07
2019-05-13T03:37:28.699Z,1.90
2019-05-13T03:40:03.091Z,2.30
2019-05-13T03:42:33.611Z,2.30
2019-05-13T03:45:04.742Z,2.13
2019-05-13T03:47:36.545Z,2.47
2019-05-13T03:50:07.653Z,2.13
2019-05-13T03:52:37.515Z,2.40
2019-05-13T03:55:08.049Z,2.33
2019-05-13T03:57:38.091Z,2.10
2019-05-13T04:00:08.751Z,1.93
2019-05-13T04:02:38.795Z,2.33
2019-05-13T04:05:12.932Z,2.50
2019-05-13T04:07:43.471Z,2.30
2019-05-13T04:10:14.086Z,2.60
2019-05-13T04:12:44.381Z,2.47
2019-05-13T04:15:14.763Z,2.10
2019-05-13T04:17:45.033Z,2.47
2019-05-13T04:20:15.064Z,2.40
2019-05-13T04:22:44.995Z,2.70
2019-05-13T04:25:15.326Z,2.43
2019-05-13T04:27:45.273Z,2.43
2019-05-13T04:30:15.607Z,3.13
2019-05-13T04:32:45.546Z,2.80
2019-05-13T04:35:15.804Z,2.93
2019-05-13T04:37:45.751Z,3.00
2019-05-13T04:40:15.958Z,2.67
2019-05-13T04:42:45.890Z,2.90
2019-05-13T04:45:15.967Z,2.70
2019-05-13T04:47:46.048Z,2.90
2019-05-13T04:50:15.999Z,3.07
2019-05-13T04:52:46.330Z,3.27
2019-05-13T04:55:16.186Z,2.93
2019-05-13T04:57:46.387Z,2.83
2019-05-13T05:00:23.402Z,2.47
2019-05-13T05:03:03.533Z,3.50
2019-05-13T05:05:52.941Z,3.20
2019-05-13T05:09:06.197Z,3.87
2019-05-13T05:12:12.446Z,3.37
2019-05-13T05:15:41.599Z,3.17
2019-05-13T05:18:46.561Z,3.30
2019-05-13T05:21:23.949Z,3.23
2019-05-13T05:24:27.940Z,3.03
2019-05-13T05:27:42.182Z,3.03
2019-05-13T05:30:41.203Z,2.80
2019-05-13T05:33:51.505Z,3.10
2019-05-13T05:37:04.048Z,3.53
2019-05-13T05:39:33.986Z,3.27
2019-05-13T05:42:06.150Z,3.10
2019-05-13T05:44:36.988Z,2.73
2019-05-13T05:47:07.027Z,3.17
2019-05-13T05:49:41.079Z,3.23
2019-05-13T05:52:12.427Z,3.17
2019-05-13T05:54:42.459Z,3.27
2019-05-13T05:57:12.384Z,2.80
2019-05-13T05:59:42.835Z,2.63
2019-05-13T06:02:13.092Z,2.73
2019-05-13T06:04:46.594Z,3.37
2019-05-13T06:07:17.136Z,2.90
2019-05-13T06:09:47.380Z,2.60
2019-05-13T06:12:17.982Z,2.50
2019-05-13T06:14:48.611Z,2.40
2019-05-13T06:17:18.858Z,2.80
2019-05-13T06:19:51.089Z,3.10
2019-05-13T06:22:21.628Z,3.87
2019-05-13T06:24:52.282Z,2.90
2019-05-13T06:27:22.593Z,2.80
2019-05-13T06:29:53.015Z,2.67
2019-05-13T06:32:26.282Z,3.37
2019-05-13T06:34:54.947Z,3.10
2019-05-13T06:37:25.185Z,2.70
2019-05-13T06:39:55.481Z,3.13
2019-05-13T06:42:25.470Z,2.97
2019-05-13T06:44:55.343Z,2.93
2019-05-13T06:47:25.392Z,2.80
2019-05-13T06:49:55.250Z,2.93
2019-05-13T06:52:25.444Z,3.73
2019-05-13T06:54:55.314Z,2.93
2019-05-13T06:57:25.250Z,2.90
2019-05-13T06:59:55.107Z,3.27
2019-05-13T07:02:24.979Z,3.13
2019-05-13T07:04:54.937Z,3.00
2019-05-13T07:07:24.796Z,2.93
2019-05-13T07:09:54.943Z,2.93
2019-05-13T07:12:24.797Z,3.47
2019-05-13T07:14:54.977Z,3.27
2019-05-13T07:17:24.847Z,4.13
2019-05-13T07:19:54.749Z,2.93
2019-05-13T07:22:24.738Z,2.93
2019-05-13T07:24:56.269Z,2.90
2019-05-13T07:27:26.135Z,2.60
2019-05-13T07:29:56.053Z,2.80
2019-05-13T07:32:26.067Z,2.90
2019-05-13T07:34:56.003Z,2.60
2019-05-13T07:37:26.644Z,2.47
2019-05-13T07:39:56.680Z,2.40
2019-05-13T07:42:26.543Z,2.90
2019-05-13T07:44:56.473Z,2.90
2019-05-13T07:47:26.470Z,2.33
2019-05-13T07:50:17.815Z,2.40
2019-05-13T07:52:51.446Z,2.20
2019-05-13T07:55:22.282Z,2.50
2019-05-13T07:57:52.371Z,2.63
2019-05-13T08:00:22.422Z,1.63
2019-05-13T08:02:52.797Z,2.20
2019-05-13T08:05:23.113Z,1.90
2019-05-13T08:07:53.158Z,2.30
2019-05-13T08:10:23.102Z,2.30
2019-05-13T08:12:53.389Z,1.73
2019-05-13T08:15:23.698Z,1.80
2019-05-13T08:17:53.650Z,2.23
2019-05-13T08:20:24.003Z,1.53
2019-05-13T08:22:54.288Z,1.20
2019-05-13T08:25:24.232Z,1.33
2019-05-13T08:27:54.086Z,1.20
2019-05-13T08:30:24.262Z,1.70
2019-05-13T08:32:54.135Z,1.33
2019-05-13T08:35:24.065Z,1.80
2019-05-13T08:37:54.012Z,1.40
2019-05-13T08:40:23.966Z,1.20
2019-05-13T08:42:54.095Z,1.50
2019-05-13T08:45:24.041Z,1.60
2019-05-13T08:47:53.914Z,1.00
2019-05-13T08:50:24.190Z,1.07
2019-05-13T08:52:54.077Z,0.97
2019-05-13T08:55:24.030Z,0.90
2019-05-13T08:57:55.276Z,1.30
2019-05-13T09:00:52.797Z,1.00
2019-05-13T09:03:22.948Z,1.53
2019-05-13T09:05:54.357Z,1.10
2019-05-13T09:08:25.566Z,1.03
2019-05-13T09:10:56.944Z,0.87
2019-05-13T09:13:27.170Z,0.87
2019-05-13T09:15:57.329Z,1.10
2019-05-13T09:18:27.287Z,1.20
2019-05-13T09:20:57.138Z,1.00
2019-05-13T09:23:27.008Z,1.30
2019-05-13T09:25:56.947Z,1.00
2019-05-13T09:28:26.798Z,1.00
2019-05-13T09:30:56.658Z,1.30
2019-05-13T09:33:26.597Z,1.30
2019-05-13T09:35:56.459Z,1.10
2019-05-13T09:38:26.393Z,1.27
2019-05-13T09:40:56.329Z,1.50
2019-05-13T09:43:26.376Z,1.40
2019-05-13T09:45:56.324Z,1.30
2019-05-13T09:48:26.291Z,1.30
2019-05-13T09:50:56.235Z,1.20
2019-05-13T09:53:26.560Z,1.10
2019-05-13T09:55:56.508Z,1.30
2019-05-13T09:58:29.274Z,2.23
2019-05-13T10:00:57.854Z,1.40
2019-05-13T10:03:29.602Z,1.10
2019-05-13T10:06:01.996Z,1.40
2019-05-13T10:08:32.697Z,1.27
2019-05-13T10:11:02.910Z,1.20
2019-05-13T10:13:32.706Z,1.30
2019-05-13T10:16:02.662Z,1.30
2019-05-13T10:18:32.924Z,1.30
2019-05-13T10:21:03.450Z,1.37
2019-05-13T10:23:33.606Z,1.50
2019-05-13T10:26:06.817Z,1.30
2019-05-13T10:28:36.956Z,1.33
2019-05-13T10:31:07.163Z,1.30
2019-05-13T10:33:37.200Z,1.07
2019-05-13T10:36:07.132Z,1.30
2019-05-13T10:38:37.084Z,1.40
2019-05-13T10:41:07.221Z,1.10
2019-05-13T10:43:41.435Z,1.77
2019-05-13T10:46:12.709Z,1.57
2019-05-13T10:48:41.667Z,1.27
2019-05-13T10:51:13.141Z,1.27
2019-05-13T10:53:43.190Z,1.20
2019-05-13T10:56:13.137Z,1.30
2019-05-13T10:58:43.654Z,1.20
2019-05-13T11:01:13.903Z,0.97
2019-05-13T11:03:43.836Z,1.00
2019-05-13T11:06:13.774Z,1.60
2019-05-13T11:08:43.733Z,1.40
2019-05-13T11:11:13.680Z,1.00
2019-05-13T11:13:54.402Z,1.20
2019-05-13T11:16:15.508Z,1.37
2019-05-13T11:18:45.429Z,1.20
2019-05-13T11:21:15.359Z,1.50
2019-05-13T11:23:45.329Z,1.33
2019-05-13T11:26:15.197Z,1.40
2019-05-13T11:28:45.145Z,1.40
2019-05-13T11:31:15.100Z,1.40
2019-05-13T11:33:45.031Z,1.37
2019-05-13T11:36:18.866Z,1.30
2019-05-13T11:38:46.664Z,1.43
2019-05-13T11:41:16.624Z,1.40
2019-05-13T11:43:46.611Z,1.37
2019-05-13T11:46:16.383Z,1.50
2019-05-13T11:48:46.247Z,1.40
2019-05-13T11:51:16.115Z,2.00
2019-05-13T11:53:45.899Z,1.43
2019-05-13T11:56:16.078Z,1.50
2019-05-13T11:58:47.002Z,1.43
2019-05-13T12:01:16.955Z,1.40
2019-05-13T12:03:46.752Z,1.40
2019-05-13T12:06:16.733Z,1.37
2019-05-13T12:08:51.068Z,1.40
2019-05-13T12:11:18.302Z,1.63
2019-05-13T12:13:48.109Z,1.47
2019-05-13T12:16:18.680Z,1.73
2019-05-13T12:18:51.146Z,1.57
2019-05-13T12:21:20.658Z,1.77
2019-05-13T12:23:52.772Z,1.97
2019-05-13T12:26:23.769Z,1.80
2019-05-13T12:28:54.114Z,1.53
2019-05-13T12:31:24.103Z,1.63
2019-05-13T12:33:54.250Z,1.50
2019-05-13T12:36:24.190Z,1.90
2019-05-13T12:38:54.678Z,1.60
2019-05-13T12:41:25.091Z,1.60
2019-05-13T12:43:55.564Z,2.17
2019-05-13T12:46:25.438Z,1.50
2019-05-13T12:48:55.338Z,1.37
2019-05-13T12:51:25.203Z,1.50
2019-05-13T12:53:55.158Z,1.27
2019-05-13T12:56:25.092Z,1.50
2019-05-13T12:58:54.970Z,1.90
2019-05-13T13:01:24.920Z,1.57
2019-05-13T13:03:54.877Z,1.30
2019-05-13T13:06:35.187Z,1.50
2019-05-13T13:08:56.648Z,1.50
2019-05-13T13:11:26.840Z,1.90
2019-05-13T13:13:59.898Z,2.00
2019-05-13T13:16:34.278Z,1.60
2019-05-13T13:19:02.479Z,1.67
2019-05-13T13:21:34.383Z,1.53
2019-05-13T13:24:04.692Z,1.70
2019-05-13T13:26:34.668Z,1.80
2019-05-13T13:29:04.711Z,1.90
2019-05-13T13:31:34.890Z,1.30
2019-05-13T13:34:12.206Z,1.60
2019-05-13T13:36:36.701Z,1.73
2019-05-13T13:39:07.825Z,1.80
2019-05-13T13:41:37.603Z,1.50
2019-05-13T13:44:07.540Z,1.57
2019-05-13T13:46:44.457Z,1.53
2019-05-13T13:49:12.684Z,1.50
2019-05-13T13:51:44.518Z,1.20
2019-05-13T13:54:13.291Z,1.43
2019-05-13T13:56:44.346Z,1.60
2019-05-13T13:59:14.781Z,1.43
2019-05-13T14:01:44.799Z,1.90
2019-05-13T14:04:16.295Z,1.50
2019-05-13T14:09:18.634Z,1.63
2019-05-13T14:11:51.304Z,1.93
2019-05-13T14:14:21.509Z,1.57
2019-05-13T14:16:51.994Z,1.47
2019-05-13T14:19:22.331Z,1.90
2019-05-13T14:21:52.755Z,1.70
2019-05-13T14:24:22.663Z,1.63
2019-05-13T14:26:52.980Z,1.83
2019-05-13T14:31:54.049Z,1.70
2019-05-13T14:34:24.364Z,1.90
2019-05-13T14:36:55.190Z,1.53
2019-05-13T14:39:25.479Z,1.53
2019-05-13T14:41:55.632Z,1.57
2019-05-13T14:44:25.546Z,1.70
2019-05-13T14:46:55.571Z,1.70
2019-05-13T14:49:25.976Z,1.77
2019-05-13T14:51:56.589Z,1.90
2019-05-13T14:54:27.534Z,1.60
2019-05-13T14:56:57.775Z,2.00
2019-05-13T14:59:27.854Z,1.50
2019-05-13T15:01:58.170Z,1.90
2019-05-13T15:04:29.036Z,1.57
2019-05-13T15:06:59.438Z,1.77
2019-05-13T15:09:31.414Z,1.60
2019-05-13T15:12:02.301Z,1.57
2019-05-13T15:14:32.452Z,1.90
2019-05-13T15:17:07.073Z,2.13
2019-05-13T15:19:34.334Z,1.70
2019-05-13T15:22:04.367Z,1.80
2019-05-13T15:24:34.361Z,1.70
2019-05-13T15:27:04.684Z,2.13
2019-05-13T15:29:34.571Z,1.43
2019-05-13T15:32:04.563Z,1.80
2019-05-13T15:34:34.846Z,1.80
2019-05-13T15:37:04.980Z,1.40
2019-05-13T15:39:34.965Z,1.27
2019-05-13T15:42:04.948Z,1.27
2019-05-13T15:44:35.096Z,1.77
2019-05-13T15:47:22.217Z,1.73
2019-05-13T15:49:37.026Z,1.57
2019-05-13T15:52:07.703Z,1.70
2019-05-13T15:54:38.232Z,1.90
2019-05-13T15:57:08.194Z,1.70
2019-05-13T15:59:38.134Z,1.40
2019-05-13T16:02:08.122Z,1.60
2019-05-13T16:04:50.022Z,1.80
2019-05-13T16:07:12.106Z,1.63
2019-05-13T16:09:42.174Z,1.70
2019-05-13T16:12:12.340Z,1.63
2019-05-13T16:14:42.330Z,1.70
2019-05-13T16:17:12.569Z,1.47
2019-05-13T16:19:42.819Z,1.57
2019-05-13T16:22:13.142Z,1.43
2019-05-13T16:24:43.029Z,1.73
2019-05-13T16:27:12.912Z,1.50
2019-05-13T16:29:42.809Z,1.70
2019-05-13T16:32:13.874Z,1.70
2019-05-13T16:34:43.844Z,1.60
2019-05-13T16:37:13.810Z,1.93
2019-05-13T16:39:43.795Z,2.00
2019-05-13T16:42:14.131Z,1.50
2019-05-13T16:44:45.079Z,1.50
2019-05-13T16:47:15.034Z,1.67
2019-05-13T16:49:45.001Z,1.70
2019-05-13T16:52:14.984Z,1.50
2019-05-13T16:54:44.963Z,1.30
2019-05-13T16:57:15.326Z,2.03
2019-05-13T16:59:45.305Z,1.60
2019-05-13T17:02:15.253Z,1.20
2019-05-13T17:04:45.228Z,1.60
2019-05-13T17:07:15.183Z,1.20
2019-05-13T17:09:45.428Z,1.40
2019-05-13T17:12:16.046Z,2.00
2019-05-13T17:14:46.448Z,1.50
2019-05-13T17:17:16.458Z,1.60
2019-05-13T17:19:46.376Z,1.60
2019-05-13T17:22:17.041Z,1.50
2019-05-13T17:24:47.356Z,1.73
2019-05-13T17:27:18.424Z,1.73
2019-05-13T17:29:48.716Z,1.63
2019-05-13T17:32:19.041Z,1.53
2019-05-13T17:34:51.395Z,1.50
2019-05-13T17:37:22.130Z,1.60
2019-05-13T17:39:52.211Z,1.50
2019-05-13T17:42:22.118Z,1.60
2019-05-13T17:44:52.444Z,1.63
2019-05-13T17:47:22.420Z,1.60
2019-05-13T17:49:52.646Z,1.57
2019-05-13T17:52:22.684Z,1.67
2019-05-13T17:54:52.629Z,1.80
2019-05-13T17:57:22.615Z,1.57
2019-05-13T17:59:52.742Z,1.50
2019-05-13T18:02:23.948Z,1.60
2019-05-13T18:04:53.969Z,1.57
2019-05-13T18:07:24.344Z,1.53
2019-05-13T18:09:54.546Z,1.50
2019-05-13T18:12:24.676Z,1.73
2019-05-13T18:14:55.046Z,2.13
2019-05-13T18:17:25.038Z,1.50
2019-05-13T18:19:55.375Z,1.50
2019-05-13T18:22:25.435Z,1.80
2019-05-13T18:24:55.396Z,2.00
2019-05-13T18:27:25.401Z,1.73
2019-05-13T18:29:55.317Z,1.87
2019-05-13T18:32:25.336Z,1.50
2019-05-13T18:34:55.783Z,1.63
2019-05-13T18:37:25.778Z,1.60
2019-05-13T18:39:55.754Z,1.40
2019-05-13T18:42:25.784Z,1.67
2019-05-13T18:44:56.180Z,1.57
2019-05-13T18:47:26.158Z,1.70
2019-05-13T18:49:57.194Z,1.73
2019-05-13T18:52:27.459Z,1.80
2019-05-13T18:54:57.713Z,1.40
2019-05-13T18:57:28.047Z,1.70
2019-05-13T18:59:58.347Z,1.63
2019-05-13T19:02:28.354Z,1.80
2019-05-13T19:04:58.772Z,1.90
2019-05-13T19:07:31.371Z,1.97
2019-05-13T19:10:02.501Z,1.70
2019-05-13T19:12:32.381Z,2.00
2019-05-13T19:15:02.611Z,1.70
2019-05-13T19:17:36.243Z,2.00
2019-05-13T19:20:06.621Z,1.80
2019-05-13T19:22:37.206Z,1.80
2019-05-13T19:25:08.759Z,1.87
2019-05-13T19:27:41.099Z,2.20
2019-05-13T19:30:12.219Z,1.77
2019-05-13T19:32:42.268Z,1.97
2019-05-13T19:35:12.285Z,1.47
2019-05-13T19:37:42.701Z,1.80
2019-05-13T19:40:13.181Z,2.17
2019-05-13T19:42:43.804Z,2.27
2019-05-13T19:45:14.630Z,2.00
2019-05-13T19:47:44.845Z,2.30
2019-05-13T19:50:15.985Z,2.13
2019-05-13T19:52:46.710Z,1.83
2019-05-13T19:55:16.741Z,1.80
2019-05-13T19:57:46.691Z,1.90
2019-05-13T20:00:16.776Z,2.10
2019-05-13T20:02:48.329Z,2.27
2019-05-13T20:05:20.519Z,2.00
2019-05-13T20:07:52.186Z,2.80
2019-05-13T20:10:21.951Z,2.17
2019-05-13T20:12:51.999Z,2.13
2019-05-13T20:15:23.398Z,2.90
2019-05-13T20:17:53.999Z,2.33
2019-05-13T20:20:24.195Z,2.30
2019-05-13T20:22:54.436Z,2.80
2019-05-13T20:25:24.707Z,2.70
2019-05-13T20:27:54.628Z,2.90
2019-05-13T20:30:24.962Z,2.80
2019-05-13T20:32:55.232Z,2.77
2019-05-13T20:35:25.152Z,2.83
2019-05-13T20:37:55.407Z,2.90
2019-05-13T20:40:25.439Z,2.70
2019-05-13T20:42:55.249Z,2.67
2019-05-13T20:45:25.238Z,2.70
2019-05-13T20:47:58.331Z,2.90
2019-05-13T20:50:28.169Z,2.87
2019-05-13T20:52:58.208Z,2.80
2019-05-13T20:55:28.181Z,2.83
2019-05-13T20:57:58.391Z,2.33
2019-05-13T21:00:31.041Z,2.47
2019-05-13T21:03:02.838Z,3.07
2019-05-13T21:05:33.002Z,2.50
2019-05-13T21:08:02.956Z,2.20
2019-05-13T21:10:32.902Z,2.73
2019-05-13T21:13:03.210Z,2.03
2019-05-13T21:15:33.139Z,2.27
2019-05-13T21:18:03.007Z,2.40
2019-05-13T21:20:33.169Z,1.70
2019-05-13T21:23:03.389Z,2.33
2019-05-13T21:25:34.217Z,2.00
2019-05-13T21:28:04.447Z,2.23
2019-05-13T21:30:34.671Z,2.00
2019-05-13T21:33:04.625Z,2.43
2019-05-13T21:35:34.491Z,1.83
2019-05-13T21:38:04.439Z,2.30
2019-05-13T21:40:35.392Z,2.00
2019-05-13T21:43:05.235Z,2.00
2019-05-13T21:45:35.174Z,1.97
2019-05-13T21:48:06.002Z,2.07
2019-05-13T21:50:37.360Z,2.23
2019-05-13T21:53:07.584Z,1.70
2019-05-13T21:55:37.444Z,1.80
2019-05-13T21:58:11.398Z,1.50
2019-05-13T22:00:43.742Z,1.67
2019-05-13T22:03:13.949Z,1.80
2019-05-13T22:05:44.036Z,2.07
2019-05-13T22:08:14.921Z,1.90
2019-05-13T22:10:45.204Z,2.13
2019-05-13T22:13:15.132Z,1.70
2019-05-13T22:15:45.196Z,1.70
2019-05-13T22:18:15.064Z,1.93
2019-05-13T22:20:50.441Z,1.90
2019-05-13T22:23:16.683Z,1.87
2019-05-13T22:25:47.841Z,1.80
2019-05-13T22:28:18.098Z,1.67
2019-05-13T22:30:48.048Z,2.03
2019-05-13T22:33:17.903Z,1.77
2019-05-13T22:35:48.111Z,1.73
2019-05-13T22:38:17.904Z,1.73
2019-05-13T22:40:47.771Z,1.90
2019-05-13T22:43:17.851Z,1.77
2019-05-13T22:45:47.730Z,1.60
2019-05-13T22:48:17.688Z,1.57
2019-05-13T22:50:47.703Z,1.80
2019-05-13T22:53:17.799Z,1.53
2019-05-13T22:55:48.068Z,1.50
2019-05-13T22:58:17.940Z,1.50
2019-05-13T23:00:47.809Z,1.40
2019-05-13T23:03:18.830Z,1.50
2019-05-13T23:05:48.901Z,1.57
2019-05-13T23:08:21.577Z,1.50
2019-05-13T23:10:51.504Z,1.57
2019-05-13T23:13:22.540Z,1.57
2019-05-13T23:15:52.480Z,1.30
2019-05-13T23:18:22.353Z,1.50
2019-05-13T23:20:52.134Z,1.20
2019-05-13T23:23:22.267Z,1.50
2019-05-13T23:25:52.280Z,1.50
2019-05-13T23:28:22.062Z,1.30
2019-05-13T23:30:52.175Z,1.43
2019-05-13T23:33:22.114Z,1.33
2019-05-13T23:35:51.952Z,1.40
2019-05-13T23:38:21.821Z,1.40
2019-05-13T23:40:51.831Z,1.33
2019-05-13T23:43:22.688Z,1.50
2019-05-13T23:45:52.572Z,1.90
2019-05-13T23:48:22.534Z,1.40
2019-05-13T23:50:52.704Z,1.37
2019-05-13T23:53:22.566Z,1.37
2019-05-13T23:55:52.956Z,1.50
2019-05-13T23:58:22.843Z,1.53
